Time;durP1;ratioP1;P1;durP2;ratioP2;P2;SDS_P1;SDS_P2;PMS_P1;PMS_P2;Temp;Humidity;BMP_temperature;BMP_pressure;BME280_temperature;BME280_humidity;BME280_pressure;Samples;Min_cycle;Max_cycle;Signal;HPM_P1;HPM_P2
2022/07/08 00:00:34;;;;;;;6.17;2.20;;;;;;;20.69;100.00;101398.25;2072003;28;20201;-68
2022/07/08 00:01:35;;;;;;;3.57;1.80;;;;;;;20.25;100.00;101336.22;2072783;28;20232;-68
2022/07/08 00:02:35;;;;;;;3.70;2.10;;;;;;;20.06;100.00;101311.50;2072250;28;20193;-69
2022/07/08 00:03:36;;;;;;;2.87;1.87;;;;;;;20.57;100.00;101405.69;2072210;28;20190;-68
2022/07/08 00:04:37;;;;;;;2.93;2.00;;;;;;;20.45;100.00;101403.13;2072112;28;20202;-68
2022/07/08 00:05:38;;;;;;;3.80;2.30;;;;;;;20.33;100.00;101387.28;2072671;28;20637;-69
2022/07/08 00:06:38;;;;;;;4.17;2.50;;;;;;;20.46;100.00;101410.34;2072168;28;20182;-68
2022/07/08 00:07:39;;;;;;;2.77;2.17;;;;;;;20.55;100.00;101413.06;2072199;28;20431;-68
2022/07/08 00:08:40;;;;;;;2.70;2.30;;;;;;;20.53;100.00;101416.34;2071579;28;20243;-68
2022/07/08 00:09:40;;;;;;;2.27;2.03;;;;;;;20.18;100.00;101347.06;2079682;28;20192;-68
2022/07/08 00:10:40;;;;;;;3.10;2.00;;;;;;;20.30;100.00;101372.13;2074332;28;20280;-68
2022/07/08 00:11:41;;;;;;;3.30;2.20;;;;;;;19.72;100.00;101292.34;2064447;28;20273;-68
2022/07/08 00:12:42;;;;;;;3.40;1.97;;;;;;;20.57;100.00;101425.41;2067065;28;20209;-68
2022/07/08 00:13:43;;;;;;;3.30;2.07;;;;;;;20.53;100.00;101424.81;2070595;28;20174;-68
2022/07/08 00:14:43;;;;;;;3.27;2.13;;;;;;;19.69;100.00;101280.03;2064017;28;20648;-68
2022/07/08 00:15:44;;;;;;;3.43;1.97;;;;;;;20.62;100.00;101424.72;2064819;28;20202;-68
2022/07/08 00:16:44;;;;;;;2.97;1.83;;;;;;;20.68;100.00;101416.41;2072435;28;20678;-68
2022/07/08 00:17:45;;;;;;;2.67;2.10;;;;;;;20.72;100.00;101422.63;2072611;28;20652;-68
2022/07/08 00:18:45;;;;;;;2.67;2.13;;;;;;;20.75;100.00;101416.81;2072272;28;20201;-68
2022/07/08 00:19:46;;;;;;;2.30;1.80;;;;;;;20.78;100.00;101415.06;2072584;28;20644;-69
2022/07/08 00:20:46;;;;;;;3.43;2.00;;;;;;;20.80;100.00;101410.50;2072322;28;20205;-68
2022/07/08 00:21:50;;;;;;;3.80;1.80;;;;;;;20.82;100.00;101410.03;2072442;28;20281;-68
2022/07/08 00:22:50;;;;;;;3.50;2.17;;;;;;;20.79;100.00;101400.50;2071738;28;20181;-68
2022/07/08 00:23:51;;;;;;;4.43;1.93;;;;;;;20.86;100.00;101413.41;2072297;28;20465;-68
2022/07/08 00:24:52;;;;;;;2.90;1.90;;;;;;;20.87;100.00;101412.19;2072524;28;20260;-68
2022/07/08 00:25:52;;;;;;;3.33;2.00;;;;;;;20.92;100.00;101426.38;2064380;28;20246;-68
2022/07/08 00:26:53;;;;;;;3.10;1.80;;;;;;;20.87;100.00;101403.72;2070944;28;20452;-68
2022/07/08 00:27:53;;;;;;;2.57;2.00;;;;;;;20.83;100.00;101408.75;2072495;28;20193;-68
2022/07/08 00:28:54;;;;;;;2.10;1.80;;;;;;;20.97;100.00;101425.69;2071799;28;20263;-68
2022/07/08 00:29:55;;;;;;;2.87;2.00;;;;;;;20.83;100.00;101406.69;2072052;28;20264;-68
2022/07/08 00:30:55;;;;;;;2.87;2.00;;;;;;;21.01;100.00;101423.47;2065987;28;20701;-68
2022/07/08 00:31:55;;;;;;;3.03;2.03;;;;;;;20.85;100.00;101395.75;2071897;28;20640;-68
2022/07/08 00:32:56;;;;;;;2.60;2.10;;;;;;;21.05;100.00;101426.09;2072026;28;20177;-68
2022/07/08 00:33:56;;;;;;;2.50;1.87;;;;;;;21.07;100.00;101423.56;2072300;28;20198;-68
2022/07/08 00:34:57;;;;;;;2.03;1.80;;;;;;;20.65;100.00;101369.47;2071931;28;20242;-68
2022/07/08 00:35:57;;;;;;;3.37;2.20;;;;;;;21.06;100.00;101422.00;2072271;28;20226;-69
2022/07/08 00:36:58;;;;;;;2.07;1.87;;;;;;;21.09;100.00;101424.63;2072318;28;20197;-68
2022/07/08 00:37:58;;;;;;;3.97;2.00;;;;;;;21.09;100.00;101423.88;2072152;28;20575;-68
2022/07/08 00:38:59;;;;;;;3.27;2.07;;;;;;;21.13;100.00;101433.66;2071895;28;20181;-68
2022/07/08 00:39:59;;;;;;;4.40;1.83;;;;;;;21.17;100.00;101433.47;2071654;28;20186;-68
2022/07/08 00:41:00;;;;;;;3.30;1.90;;;;;;;21.19;100.00;101439.41;2071913;28;20340;-69
2022/07/08 00:42:01;;;;;;;3.60;2.03;;;;;;;20.37;100.00;101301.38;2064488;28;20209;-68
2022/07/08 00:43:01;;;;;;;3.13;2.00;;;;;;;21.22;100.00;101430.75;2070121;28;20217;-68
2022/07/08 00:44:02;;;;;;;2.87;1.90;;;;;;;20.93;100.00;101388.47;2072413;28;20200;-68
2022/07/08 00:45:02;;;;;;;3.50;1.93;;;;;;;21.10;100.00;101406.47;2071476;28;20698;-68
2022/07/08 00:46:04;;;;;;;2.77;1.77;;;;;;;21.27;100.00;101432.91;2072045;28;20213;-68
2022/07/08 00:47:05;;;;;;;3.40;1.80;;;;;;;21.21;100.00;101429.22;2072529;28;20236;-68
2022/07/08 00:48:05;;;;;;;2.93;1.80;;;;;;;21.22;100.00;101435.63;2072679;28;20531;-68
2022/07/08 00:49:06;;;;;;;5.00;1.90;;;;;;;21.17;100.00;101428.63;2071906;28;20620;-68
2022/07/08 00:50:07;;;;;;;3.93;2.00;;;;;;;21.21;100.00;101429.22;2064898;28;20189;-68
2022/07/08 00:51:11;;;;;;;2.80;1.90;;;;;;;21.21;100.00;101422.78;2070330;28;20572;-68
2022/07/08 00:52:12;;;;;;;3.67;1.97;;;;;;;21.18;100.00;101426.59;2071758;28;20471;-68
2022/07/08 00:53:13;;;;;;;3.63;2.00;;;;;;;21.20;100.00;101429.69;2071889;28;20490;-68
2022/07/08 00:54:16;;;;;;;5.43;2.10;;;;;;;21.19;100.00;101428.16;2072358;28;20922;-68
2022/07/08 00:55:17;;;;;;;4.73;2.70;;;;;;;21.14;100.00;101437.28;2072043;28;20628;-68
2022/07/08 00:56:20;;;;;;;3.73;2.00;;;;;;;20.64;100.00;101371.53;2071989;28;20519;-68
2022/07/08 00:57:20;;;;;;;4.23;2.90;;;;;;;20.94;100.00;101423.84;2072302;28;20809;-68
2022/07/08 00:58:21;;;;;;;4.53;3.20;;;;;;;20.90;100.00;101439.38;2072321;28;20495;-68
2022/07/08 00:59:23;;;;;;;4.97;3.20;;;;;;;20.85;100.00;101440.03;2072856;28;20659;-68
2022/07/08 01:00:23;;;;;;;4.90;3.80;;;;;;;20.86;100.00;101438.75;2064582;28;20856;-68
2022/07/08 01:01:24;;;;;;;5.77;3.27;;;;;;;20.76;100.00;101443.72;2070398;28;20456;-68
2022/07/08 01:02:24;;;;;;;6.00;4.43;;;;;;;20.62;100.00;101424.72;2072029;28;20247;-69
2022/07/08 01:03:25;;;;;;;8.50;4.30;;;;;;;20.70;100.00;101445.66;2072196;28;20231;-68
2022/07/08 01:04:25;;;;;;;5.07;3.77;;;;;;;20.15;100.00;101360.06;2071557;28;20239;-68
2022/07/08 01:05:26;;;;;;;7.17;4.30;;;;;;;20.60;100.00;101430.09;2072111;28;20817;-68
2022/07/08 01:06:27;;;;;;;5.10;4.10;;;;;;;20.74;100.00;101439.81;2071148;28;20184;-68
2022/07/08 01:07:27;;;;;;;4.40;4.00;;;;;;;20.77;100.00;101448.09;2064613;28;20184;-68
2022/07/08 01:08:28;;;;;;;5.37;4.63;;;;;;;20.78;100.00;101446.06;2072030;28;20201;-68
2022/07/08 01:09:28;;;;;;;4.63;4.20;;;;;;;20.72;100.00;101448.00;2072388;28;20193;-68
2022/07/08 01:10:29;;;;;;;4.60;4.13;;;;;;;20.71;100.00;101452.84;2072060;28;20200;-68
2022/07/08 01:11:30;;;;;;;4.70;4.30;;;;;;;20.77;100.00;101445.25;2072033;28;20192;-68
2022/07/08 01:12:31;;;;;;;7.80;4.50;;;;;;;20.80;100.00;101449.16;2069734;28;20510;-68
2022/07/08 01:13:32;;;;;;;4.70;4.30;;;;;;;20.80;100.00;101438.69;2072155;28;20177;-68
2022/07/08 01:14:33;;;;;;;5.77;4.40;;;;;;;20.85;100.00;101448.47;2071718;28;20412;-68
2022/07/08 01:15:34;;;;;;;5.13;4.40;;;;;;;20.86;100.00;101450.81;2072155;28;20503;-68
2022/07/08 01:16:36;;;;;;;6.03;4.70;;;;;;;20.90;100.00;101453.47;2064393;28;20551;-68
2022/07/08 01:17:41;;;;;;;6.80;4.63;;;;;;;20.97;100.00;101453.09;2071709;28;20201;-68
2022/07/08 01:18:41;;;;;;;5.57;4.00;;;;;;;20.94;100.00;101454.84;2072418;28;20459;-68
2022/07/08 01:19:42;;;;;;;6.10;4.40;;;;;;;20.94;100.00;101454.06;2071895;28;20965;-68
2022/07/08 01:20:45;;;;;;;5.80;4.47;;;;;;;20.98;100.00;101457.50;2072137;28;20203;-68
2022/07/08 01:21:46;;;;;;;5.13;4.63;;;;;;;20.95;100.00;101453.59;2071944;28;20282;-68
2022/07/08 01:22:47;;;;;;;5.93;4.87;;;;;;;20.96;100.00;101452.31;2071908;28;20531;-69
2022/07/08 01:23:47;;;;;;;7.87;5.13;;;;;;;20.98;100.00;101457.50;2072126;28;20427;-68
2022/07/08 01:24:48;;;;;;;6.30;4.93;;;;;;;20.86;100.00;101439.56;2071481;28;20203;-68
2022/07/08 01:25:48;;;;;;;6.47;5.20;;;;;;;20.66;100.00;101407.66;2072313;28;20280;-68
2022/07/08 01:26:49;;;;;;;5.97;4.63;;;;;;;20.96;100.00;101445.91;2072255;28;20252;-68
2022/07/08 01:27:50;;;;;;;6.03;4.53;;;;;;;20.97;100.00;101445.44;2071739;28;20209;-68
2022/07/08 01:28:50;;;;;;;4.97;4.37;;;;;;;20.87;100.00;101426.25;2072398;28;20197;-68
2022/07/08 01:29:51;;;;;;;6.50;4.77;;;;;;;21.04;100.00;101445.03;2071476;28;20212;-68
2022/07/08 01:30:52;;;;;;;5.33;4.70;;;;;;;20.89;100.00;101424.53;2068595;28;20213;-68
2022/07/08 01:31:52;;;;;;;4.93;4.13;;;;;;;21.03;100.00;101451.94;2068018;28;20185;-68
2022/07/08 01:32:53;;;;;;;5.90;4.30;;;;;;;21.03;100.00;101454.00;2079186;28;20206;-68
2022/07/08 01:33:53;;;;;;;8.10;4.20;;;;;;;20.95;100.00;101431.06;2072645;28;20184;-68
2022/07/08 01:34:54;;;;;;;6.33;4.60;;;;;;;21.03;100.00;101442.72;2071730;28;20240;-68
2022/07/08 01:35:54;;;;;;;5.63;4.43;;;;;;;21.01;100.00;101434.75;2071867;28;20203;-68
2022/07/08 01:36:55;;;;;;;5.43;4.40;;;;;;;21.12;100.00;101445.44;2071344;28;20205;-68
2022/07/08 01:37:55;;;;;;;5.20;4.50;;;;;;;21.15;100.00;101450.09;2071349;28;20201;-68
2022/07/08 01:38:56;;;;;;;5.87;4.27;;;;;;;21.14;100.00;101448.56;2071982;28;20244;-68
2022/07/08 01:39:57;;;;;;;6.47;4.50;;;;;;;20.40;100.00;101336.25;2072112;28;20181;-68
2022/07/08 01:40:57;;;;;;;5.67;4.40;;;;;;;21.18;100.00;101449.91;2071799;28;20192;-68
2022/07/08 01:41:58;;;;;;;6.20;4.00;;;;;;;21.19;100.00;101445.06;2072554;28;20182;-68
2022/07/08 01:42:58;;;;;;;5.40;3.70;;;;;;;21.12;100.00;101437.75;2070690;28;20709;-68
2022/07/08 01:43:59;;;;;;;6.23;3.70;;;;;;;20.80;100.00;101409.72;2068108;28;20316;-68
2022/07/08 01:44:59;;;;;;;6.03;4.03;;;;;;;20.72;100.00;101383.22;2071490;28;20213;-68
2022/07/08 01:46:00;;;;;;;7.53;3.90;;;;;;;21.14;100.00;101446.50;2071747;28;20198;-69
2022/07/08 01:47:00;;;;;;;5.63;3.57;;;;;;;21.13;100.00;101449.81;2072695;28;20217;-68
2022/07/08 01:48:01;;;;;;;6.70;3.93;;;;;;;21.12;100.00;101449.03;2072245;28;20208;-68
2022/07/08 01:49:01;;;;;;;4.87;3.20;;;;;;;21.11;100.00;101450.31;2072194;28;20246;-68
2022/07/08 01:50:02;;;;;;;5.17;3.53;;;;;;;21.11;100.00;101452.34;2072294;28;20201;-68
2022/07/08 01:51:03;;;;;;;5.83;3.57;;;;;;;20.50;100.00;101377.91;2072062;28;20196;-68
2022/07/08 01:52:08;;;;;;;4.53;3.40;;;;;;;21.07;100.00;101460.97;2072098;28;20212;-68
2022/07/08 01:53:08;;;;;;;5.73;3.43;;;;;;;20.32;100.00;101335.84;2071669;28;20178;-68
2022/07/08 01:54:09;;;;;;;3.90;3.47;;;;;;;21.20;100.00;101455.06;2073175;28;20436;-68
2022/07/08 01:55:10;;;;;;;5.20;3.20;;;;;;;21.26;100.00;101453.13;2073041;28;20456;-68
2022/07/08 01:56:10;;;;;;;5.57;3.13;;;;;;;21.24;100.00;101456.41;2070465;28;20784;-68
2022/07/08 01:57:14;;;;;;;5.27;3.37;;;;;;;20.39;100.00;101329.84;2073569;28;20671;-68
2022/07/08 01:58:15;;;;;;;4.80;2.90;;;;;;;21.11;100.00;101433.41;2073665;28;20216;-68
2022/07/08 01:59:15;;;;;;;3.93;3.10;;;;;;;21.22;100.00;101453.31;2073454;28;20461;-68
2022/07/08 02:00:16;;;;;;;5.07;3.00;;;;;;;20.75;100.00;101374.56;2073361;28;20654;-68
2022/07/08 02:01:16;;;;;;;3.93;3.30;;;;;;;20.73;100.00;101365.03;2073353;28;20197;-68
2022/07/08 02:02:20;;;;;;;5.30;3.50;;;;;;;20.67;100.00;101362.09;2071860;28;20574;-68
2022/07/08 02:03:20;;;;;;;5.27;2.80;;;;;;;21.28;100.00;101451.38;2065399;28;20650;-68
2022/07/08 02:04:21;;;;;;;3.30;3.00;;;;;;;20.21;100.00;101287.78;2073101;28;20428;-69
2022/07/08 02:05:22;;;;;;;5.67;3.57;;;;;;;21.26;100.00;101448.28;2073647;28;20650;-68
2022/07/08 02:06:23;;;;;;;4.20;3.07;;;;;;;20.95;100.00;101388.00;2073318;28;20294;-68
2022/07/08 02:07:23;;;;;;;4.47;3.00;;;;;;;21.26;100.00;101441.84;2073446;28;20444;-68
2022/07/08 02:08:24;;;;;;;3.20;2.87;;;;;;;20.48;100.00;101323.34;2073355;28;20292;-68
2022/07/08 02:09:24;;;;;;;5.63;3.17;;;;;;;21.27;100.00;101447.00;2073587;28;20715;-68
2022/07/08 02:10:25;;;;;;;4.70;3.20;;;;;;;21.25;100.00;101454.38;2073219;28;20185;-69
2022/07/08 02:12:44;;;;;;;4.77;3.10;;;;;;;21.29;100.00;101450.09;2072372;28;20497;-69
2022/07/08 02:13:45;;;;;;;4.13;2.77;;;;;;;21.33;100.00;101450.69;2073323;28;20463;-68
2022/07/08 02:14:48;;;;;;;4.37;2.90;;;;;;;21.31;100.00;101450.41;2073117;28;20239;-68
2022/07/08 02:15:48;;;;;;;4.70;3.27;;;;;;;21.14;100.00;101437.28;2073654;28;20310;-68
2022/07/08 02:16:49;;;;;;;6.07;3.10;;;;;;;21.28;100.00;101450.59;2073435;28;20451;-68
2022/07/08 02:17:49;;;;;;;3.30;2.80;;;;;;;21.20;100.00;101449.44;2073614;28;20194;-68
2022/07/08 02:18:50;;;;;;;4.57;3.50;;;;;;;21.22;100.00;101456.13;2072803;28;20204;-68
2022/07/08 02:19:51;;;;;;;3.87;3.00;;;;;;;20.80;100.00;101398.44;2072514;28;20205;-68
2022/07/08 02:20:51;;;;;;;5.00;3.13;;;;;;;20.46;100.00;101339.97;2072693;28;20227;-68
2022/07/08 02:21:52;;;;;;;3.63;3.20;;;;;;;21.18;100.00;101464.00;2072782;28;20185;-68
2022/07/08 02:22:52;;;;;;;5.90;3.10;;;;;;;21.19;100.00;101464.78;2071841;28;20671;-68
2022/07/08 02:23:52;;;;;;;4.73;3.30;;;;;;;21.21;100.00;101463.03;2065785;28;20182;-68
2022/07/08 02:24:53;;;;;;;5.60;2.90;;;;;;;21.21;100.00;101467.88;2072891;28;20197;-68
2022/07/08 02:25:55;;;;;;;4.43;3.27;;;;;;;21.21;100.00;101462.25;2072682;28;20339;-69
2022/07/08 02:26:55;;;;;;;3.60;3.20;;;;;;;21.23;100.00;101471.03;2073635;28;20194;-69
2022/07/08 02:27:56;;;;;;;4.43;2.90;;;;;;;21.16;100.00;101460.13;2073244;28;20447;-68
2022/07/08 02:28:56;;;;;;;5.20;3.10;;;;;;;21.20;100.00;101467.13;2073228;28;20728;-68
2022/07/08 02:29:57;;;;;;;5.60;3.03;;;;;;;21.20;100.00;101472.78;2073350;28;20223;-68
2022/07/08 02:30:57;;;;;;;4.93;2.90;;;;;;;21.20;100.00;101467.13;2072957;28;20186;-68
2022/07/08 02:31:58;;;;;;;6.13;2.90;;;;;;;21.22;100.00;101469.44;2073223;28;20276;-68
2022/07/08 02:32:59;;;;;;;4.37;2.80;;;;;;;21.26;100.00;101464.41;2073162;28;20261;-68
2022/07/08 02:33:59;;;;;;;6.07;3.00;;;;;;;21.29;100.00;101467.00;2073532;28;20217;-69
2022/07/08 02:34:59;;;;;;;6.43;2.90;;;;;;;21.32;100.00;101466.06;2072629;28;20687;-68
2022/07/08 02:36:00;;;;;;;5.37;3.17;;;;;;;21.34;100.00;101462.75;2072915;28;20208;-68
2022/07/08 02:37:00;;;;;;;5.37;2.70;;;;;;;20.48;100.00;101343.06;2072968;28;20193;-68
2022/07/08 02:38:01;;;;;;;4.43;2.80;;;;;;;21.19;100.00;101459.91;2073249;28;20213;-69
2022/07/08 02:39:02;;;;;;;5.87;2.70;;;;;;;20.99;100.00;101454.16;2072996;28;20182;-68
2022/07/08 02:40:03;;;;;;;3.53;2.80;;;;;;;21.07;100.00;101468.66;2073158;28;20185;-68
2022/07/08 02:41:04;;;;;;;4.47;2.73;;;;;;;21.00;100.00;101461.38;2073451;28;20432;-68
2022/07/08 02:42:05;;;;;;;7.67;2.90;;;;;;;21.09;100.00;101480.22;2073665;28;20226;-68
2022/07/08 02:43:09;;;;;;;4.67;2.80;;;;;;;21.06;100.00;101465.06;2071625;28;20685;-68
2022/07/08 02:44:10;;;;;;;4.60;2.77;;;;;;;21.07;100.00;101463.81;2071270;28;20439;-69
2022/07/08 02:45:11;;;;;;;4.37;2.80;;;;;;;21.03;100.00;101468.84;2069148;28;20450;-68
2022/07/08 02:46:13;;;;;;;5.60;2.60;;;;;;;21.06;100.00;101470.72;2072832;28;20287;-68
2022/07/08 02:47:14;;;;;;;3.13;2.53;;;;;;;21.06;100.00;101470.72;2072814;28;20428;-68
2022/07/08 02:48:14;;;;;;;5.47;2.97;;;;;;;21.06;100.00;101475.56;2074297;28;20419;-69
2022/07/08 02:49:15;;;;;;;3.43;2.27;;;;;;;21.06;100.00;101467.09;2080212;28;20220;-68
2022/07/08 02:50:15;;;;;;;2.90;2.43;;;;;;;21.07;100.00;101471.47;2073117;28;20182;-69
2022/07/08 02:51:15;;;;;;;4.60;2.50;;;;;;;19.85;100.00;101284.47;2073185;28;20262;-69
2022/07/08 02:52:16;;;;;;;3.60;2.63;;;;;;;21.13;100.00;101475.19;2072963;28;20206;-68
2022/07/08 02:53:16;;;;;;;4.73;2.70;;;;;;;20.59;100.00;101382.69;2072493;28;20197;-69
2022/07/08 02:54:17;;;;;;;8.27;2.93;;;;;;;21.21;100.00;101479.16;2072264;28;20255;-69
2022/07/08 02:55:18;;;;;;;6.70;3.00;;;;;;;21.14;100.00;101480.31;2072924;28;20515;-68
2022/07/08 02:56:18;;;;;;;5.67;2.60;;;;;;;21.19;100.00;101476.06;2072651;28;20212;-68
2022/07/08 02:57:19;;;;;;;6.80;2.57;;;;;;;21.23;100.00;101476.66;2071822;28;20224;-68
2022/07/08 02:58:19;;;;;;;3.33;2.60;;;;;;;21.23;100.00;101468.19;2065383;28;20250;-68
2022/07/08 02:59:20;;;;;;;3.70;3.07;;;;;;;21.22;100.00;101472.25;2071565;28;20266;-68
2022/07/08 03:00:22;;;;;;;4.10;2.83;;;;;;;21.22;100.00;101475.06;2072737;28;20233;-68
2022/07/08 03:01:22;;;;;;;3.90;3.20;;;;;;;21.18;100.00;101464.00;2073238;28;20471;-68
2022/07/08 03:02:23;;;;;;;4.07;3.50;;;;;;;21.15;100.00;101464.19;2072755;28;20944;-68
2022/07/08 03:03:23;;;;;;;4.17;3.40;;;;;;;21.15;100.00;101462.16;2071976;28;20228;-68
2022/07/08 03:04:24;;;;;;;3.83;2.93;;;;;;;21.15;100.00;101461.38;2072110;28;20218;-68
2022/07/08 03:05:24;;;;;;;5.87;3.67;;;;;;;21.11;100.00;101455.16;2071614;28;20213;-68
2022/07/08 03:06:25;;;;;;;6.00;3.57;;;;;;;21.06;100.00;101464.28;2072848;28;20221;-68
2022/07/08 03:07:26;;;;;;;8.20;3.80;;;;;;;20.39;100.00;101360.81;2065276;28;20193;-68
2022/07/08 03:08:27;;;;;;;6.30;3.67;;;;;;;21.06;100.00;101458.66;2071612;28;20197;-68
2022/07/08 03:09:27;;;;;;;6.23;3.80;;;;;;;21.03;100.00;101454.00;2072927;28;20263;-68
2022/07/08 03:10:28;;;;;;;7.37;4.00;;;;;;;21.00;100.00;101458.56;2072849;28;20639;-68
2022/07/08 03:11:28;;;;;;;4.53;3.60;;;;;;;20.98;100.00;101460.31;2072985;28;20671;-68
2022/07/08 03:12:29;;;;;;;6.43;3.90;;;;;;;20.60;100.00;101406.78;2072613;28;20660;-68
2022/07/08 03:13:30;;;;;;;5.43;3.27;;;;;;;20.96;100.00;101462.81;2071790;28;20181;-68
2022/07/08 03:14:30;;;;;;;6.20;3.70;;;;;;;20.39;100.00;101376.91;2065121;28;20186;-68
2022/07/08 03:15:31;;;;;;;6.53;3.37;;;;;;;20.86;100.00;101459.28;2072986;28;20440;-68
2022/07/08 03:16:32;;;;;;;5.63;3.40;;;;;;;20.49;100.00;101406.56;2072553;28;20196;-69
2022/07/08 03:17:32;;;;;;;6.03;3.47;;;;;;;20.31;100.00;101378.56;2073000;28;20193;-68
2022/07/08 03:18:34;;;;;;;5.93;3.67;;;;;;;20.83;100.00;101463.03;2072878;28;20297;-68
2022/07/08 03:19:35;;;;;;;7.47;4.10;;;;;;;20.84;100.00;101459.00;2072713;28;20197;-69
2022/07/08 03:20:35;;;;;;;6.50;3.70;;;;;;;20.51;100.00;101412.47;2067288;28;20428;-68
2022/07/08 03:21:36;;;;;;;5.97;3.57;;;;;;;20.82;100.00;101458.69;2072579;28;20572;-68
2022/07/08 03:22:37;;;;;;;4.97;3.77;;;;;;;20.81;100.00;101456.34;2071751;28;20185;-69
2022/07/08 03:23:37;;;;;;;6.20;3.73;;;;;;;20.84;100.00;101469.47;2073084;28;20251;-68
2022/07/08 03:24:37;;;;;;;6.40;3.73;;;;;;;20.87;100.00;101466.47;2065053;28;20197;-68
2022/07/08 03:25:38;;;;;;;4.50;3.63;;;;;;;20.81;100.00;101459.94;2064687;28;20241;-68
2022/07/08 03:26:38;;;;;;;7.00;3.77;;;;;;;20.87;100.00;101468.53;2074901;28;20222;-69
2022/07/08 03:27:39;;;;;;;3.90;3.30;;;;;;;20.86;100.00;101473.38;2077143;28;20618;-68
2022/07/08 03:28:39;;;;;;;4.63;3.10;;;;;;;20.88;100.00;101465.19;2072937;28;20214;-68
2022/07/08 03:29:40;;;;;;;4.93;3.70;;;;;;;20.89;100.00;101469.63;2072930;28;20604;-68
2022/07/08 03:30:41;;;;;;;5.80;3.93;;;;;;;20.90;100.00;101464.75;2072575;28;20215;-69
2022/07/08 03:31:41;;;;;;;4.93;3.40;;;;;;;20.91;100.00;101474.75;2072535;28;20268;-68
2022/07/08 03:32:42;;;;;;;4.00;2.83;;;;;;;20.87;100.00;101471.34;2071823;28;20645;-69
2022/07/08 03:33:42;;;;;;;5.13;3.50;;;;;;;20.28;100.00;101380.31;2072418;28;20249;-69
2022/07/08 03:34:43;;;;;;;9.03;3.90;;;;;;;20.88;100.00;101468.00;2072058;28;20219;-68
2022/07/08 03:35:43;;;;;;;7.57;3.67;;;;;;;20.89;100.00;101475.25;2072862;28;20636;-68
2022/07/08 03:36:44;;;;;;;10.33;4.07;;;;;;;20.90;100.00;101481.66;2071966;28;20200;-69
2022/07/08 03:37:45;;;;;;;10.37;4.03;;;;;;;20.91;100.00;101467.09;2072070;28;20649;-68
2022/07/08 03:38:45;;;;;;;10.13;4.03;;;;;;;20.92;100.00;101470.66;2064437;28;20268;-69
2022/07/08 03:39:46;;;;;;;7.03;3.90;;;;;;;20.92;100.00;101471.47;2072600;28;20240;-68
2022/07/08 03:42:07;;;;;;;4.80;3.80;;;;;;;20.94;100.00;101477.38;2065372;28;20245;-68
2022/07/08 03:43:07;;;;;;;5.67;3.90;;;;;;;20.96;100.00;101472.06;2071847;28;20468;-68
2022/07/08 03:44:08;;;;;;;6.47;4.03;;;;;;;20.18;100.00;101355.50;2071231;28;20479;-68
2022/07/08 03:45:09;;;;;;;5.50;3.87;;;;;;;20.92;100.00;101477.09;2065221;28;20660;-69
2022/07/08 03:46:09;;;;;;;4.80;3.70;;;;;;;20.91;100.00;101474.75;2068937;28;20193;-68
2022/07/08 03:47:10;;;;;;;5.00;3.67;;;;;;;20.93;100.00;101473.00;2072005;28;20267;-68
2022/07/08 03:48:10;;;;;;;5.53;3.73;;;;;;;20.93;100.00;101475.06;2072326;28;20264;-68
2022/07/08 03:49:10;;;;;;;4.37;3.53;;;;;;;20.93;100.00;101475.06;2071507;28;20706;-69
2022/07/08 03:50:12;;;;;;;6.10;3.83;;;;;;;20.79;100.00;101453.25;2064688;28;20229;-68
2022/07/08 03:51:13;;;;;;;6.97;3.90;;;;;;;20.30;100.00;101374.16;2065193;28;20240;-68
2022/07/08 03:52:14;;;;;;;7.70;4.03;;;;;;;20.96;100.00;101480.50;2065082;28;20511;-68
2022/07/08 03:53:14;;;;;;;4.87;3.93;;;;;;;21.00;100.00;101483.13;2070439;28;20523;-68
2022/07/08 03:54:15;;;;;;;4.37;3.97;;;;;;;20.60;100.00;101438.53;2068645;28;20704;-68
2022/07/08 03:55:15;;;;;;;6.17;3.97;;;;;;;21.00;100.00;101483.91;2068263;28;20656;-68
2022/07/08 03:56:16;;;;;;;6.97;4.30;;;;;;;20.99;100.00;101485.16;2069417;28;20589;-68
2022/07/08 03:57:16;;;;;;;5.43;4.00;;;;;;;20.96;100.00;101468.44;2072717;28;20189;-68
2022/07/08 03:58:17;;;;;;;5.33;4.10;;;;;;;21.04;100.00;101489.38;2072568;28;20245;-69
2022/07/08 03:59:18;;;;;;;6.83;4.40;;;;;;;21.08;100.00;101487.13;2073076;28;20236;-68
2022/07/08 04:00:21;;;;;;;6.60;4.20;;;;;;;20.79;100.00;101439.16;2072605;28;20197;-68
2022/07/08 04:01:21;;;;;;;5.57;4.13;;;;;;;20.81;100.00;101447.88;2072633;28;20715;-68
2022/07/08 04:02:22;;;;;;;6.10;4.07;;;;;;;21.17;100.00;101478.56;2072577;28;20824;-68
2022/07/08 04:03:23;;;;;;;6.70;4.40;;;;;;;21.19;100.00;101479.66;2071691;28;20225;-68
2022/07/08 04:04:23;;;;;;;4.83;3.90;;;;;;;20.06;100.00;101309.44;2068065;28;20221;-68
2022/07/08 04:05:24;;;;;;;5.50;4.17;;;;;;;21.21;100.00;101484.81;2064314;28;20269;-68
2022/07/08 04:06:24;;;;;;;6.73;4.40;;;;;;;20.77;100.00;101421.97;2071056;28;20178;-68
2022/07/08 04:07:25;;;;;;;6.70;4.10;;;;;;;21.17;100.00;101479.38;2071870;28;20261;-68
2022/07/08 04:08:25;;;;;;;9.03;4.30;;;;;;;21.25;100.00;101480.56;2072280;28;20244;-68
2022/07/08 04:09:27;;;;;;;5.13;4.17;;;;;;;21.25;100.00;101480.56;2072320;28;20379;-68
2022/07/08 04:10:27;;;;;;;5.40;4.13;;;;;;;21.25;100.00;101483.38;2072738;28;20221;-70
2022/07/08 04:11:28;;;;;;;4.67;4.20;;;;;;;21.31;100.00;101470.13;2072816;28;20436;-69
2022/07/08 04:12:28;;;;;;;5.30;4.30;;;;;;;21.34;100.00;101477.63;2070161;28;20248;-70
2022/07/08 04:13:29;;;;;;;5.40;4.87;;;;;;;21.37;100.00;101476.66;2072980;28;20567;-70
2022/07/08 04:14:29;;;;;;;6.80;4.80;;;;;;;21.37;100.00;101479.47;2072023;28;20648;-70
2022/07/08 04:15:29;;;;;;;5.17;4.10;;;;;;;21.37;100.00;101464.59;2072766;28;20185;-70
2022/07/08 04:16:30;;;;;;;4.40;3.90;;;;;;;20.72;100.00;101366.31;2072917;28;20665;-70
2022/07/08 04:17:31;;;;;;;5.90;4.53;;;;;;;21.44;100.00;101476.25;2071599;28;20208;-70
2022/07/08 04:18:31;;;;;;;5.07;3.97;;;;;;;21.52;100.00;101482.28;2072830;28;20197;-70
2022/07/08 04:19:32;;;;;;;5.10;4.37;;;;;;;21.47;100.00;101463.22;2071635;28;20208;-70
2022/07/08 04:20:32;;;;;;;6.30;4.27;;;;;;;21.58;100.00;101486.75;2071829;28;20182;-70
2022/07/08 04:21:33;;;;;;;9.50;4.40;;;;;;;21.59;100.00;101479.09;2072586;28;20177;-70
2022/07/08 04:22:33;;;;;;;7.47;3.97;;;;;;;21.62;100.00;101478.88;2072433;28;20184;-70
2022/07/08 04:23:35;;;;;;;4.73;3.97;;;;;;;21.62;100.00;101475.28;2070440;28;20564;-69
2022/07/08 04:24:35;;;;;;;6.03;3.70;;;;;;;21.69;100.00;101474.91;2072082;28;20182;-68
2022/07/08 04:25:36;;;;;;;5.40;3.83;;;;;;;21.54;100.00;101455.13;2072002;28;20982;-69
2022/07/08 04:26:36;;;;;;;6.33;3.50;;;;;;;21.73;100.00;101473.44;2071983;28;20205;-69
2022/07/08 04:27:37;;;;;;;6.90;4.23;;;;;;;21.76;100.00;101472.47;2070733;28;20178;-69
2022/07/08 04:28:37;;;;;;;5.87;3.77;;;;;;;21.80;100.00;101470.22;2070730;28;20650;-69
2022/07/08 04:29:38;;;;;;;10.20;4.00;;;;;;;21.82;100.00;101470.50;2072133;28;20600;-69
2022/07/08 04:30:38;;;;;;;5.00;3.60;;;;;;;21.80;100.00;101475.09;2072416;28;20651;-69
2022/07/08 04:31:39;;;;;;;6.50;3.43;;;;;;;21.84;100.00;101473.63;2072138;28;20655;-68
2022/07/08 04:32:39;;;;;;;6.23;3.50;;;;;;;21.90;100.00;101468.06;2072624;28;20189;-69
2022/07/08 04:33:40;;;;;;;4.80;3.80;;;;;;;21.45;100.00;101404.47;2072366;28;20230;-68
2022/07/08 04:34:40;;;;;;;5.93;3.70;;;;;;;21.90;100.00;101473.72;2071059;28;20216;-68
2022/07/08 04:35:41;;;;;;;6.43;3.77;;;;;;;21.79;100.00;101437.63;2068840;28;20231;-69
2022/07/08 04:36:41;;;;;;;5.83;3.60;;;;;;;22.02;100.00;101481.06;2072091;28;20229;-69
2022/07/08 04:37:42;;;;;;;5.13;3.30;;;;;;;22.08;100.00;101481.91;2072538;28;20182;-69
2022/07/08 04:38:42;;;;;;;3.97;3.10;;;;;;;21.95;100.00;101478.66;2071063;28;20240;-69
2022/07/08 04:39:43;;;;;;;3.77;3.17;;;;;;;21.26;100.00;101391.09;2071866;28;20265;-69
2022/07/08 04:40:44;;;;;;;3.83;3.17;;;;;;;21.15;100.00;101365.53;2072644;28;20235;-69
2022/07/08 04:41:44;;;;;;;4.53;3.40;;;;;;;21.83;100.00;101480.53;2071751;28;20201;-69